Time;durP1;ratioP1;P1;durP2;ratioP2;P2;SDS_P1;SDS_P2;PMS_P1;PMS_P2;Temp;Humidity;BMP_temperature;BMP_pressure;BME280_temperature;BME280_humidity;BME280_pressure;Samples;Min_cycle;Max_cycle;Signal;HPM_P1;HPM_P2
2023/03/04 00:01:25;;;;;;;10.10;1.55;;;8.50;71.60;;;;;;5114628;28;20043;-75
2023/03/04 00:03:51;;;;;;;6.63;1.40;;;8.50;71.50;;;;;;5114619;28;20039;-75
2023/03/04 00:06:16;;;;;;;7.65;1.65;;;8.50;71.50;;;;;;5114530;28;20042;-75
2023/03/04 00:08:42;;;;;;;7.82;1.95;;;8.50;71.50;;;;;;5113413;28;20028;-76
2023/03/04 00:11:08;;;;;;;8.65;1.83;;;8.50;71.70;;;;;;5114482;28;20089;-75
2023/03/04 00:13:33;;;;;;;7.13;1.55;;;8.50;71.50;;;;;;5114414;28;20027;-75
2023/03/04 00:15:59;;;;;;;6.80;2.00;;;8.40;71.60;;;;;;5114365;28;20032;-75
2023/03/04 00:18:24;;;;;;;7.22;1.48;;;8.40;71.70;;;;;;5096456;28;20088;-75
2023/03/04 00:20:50;;;;;;;6.40;1.63;;;8.40;71.70;;;;;;5113363;28;20032;-75
2023/03/04 00:23:16;;;;;;;7.07;1.58;;;8.40;71.70;;;;;;5114242;28;20073;-75
2023/03/04 00:25:41;;;;;;;11.13;1.52;;;8.40;71.70;;;;;;5114207;28;20050;-75
2023/03/04 00:28:07;;;;;;;6.20;1.50;;;8.40;71.70;;;;;;5114161;28;20021;-75
2023/03/04 00:30:33;;;;;;;7.72;1.60;;;8.40;71.70;;;;;;5114051;28;20035;-75
2023/03/04 00:32:58;;;;;;;5.28;1.30;;;8.40;71.80;;;;;;5112912;28;20042;-75
2023/03/04 00:35:24;;;;;;;9.57;1.70;;;8.40;71.80;;;;;;5114119;28;20031;-75
2023/03/04 00:37:50;;;;;;;9.73;1.50;;;8.40;71.80;;;;;;5113062;28;20080;-75
2023/03/04 00:40:16;;;;;;;6.55;1.48;;;8.40;71.90;;;;;;5113979;28;20050;-75
2023/03/04 00:42:41;;;;;;;5.72;1.63;;;8.40;72.00;;;;;;5113937;28;20035;-76
2023/03/04 00:45:08;;;;;;;10.30;1.90;;;8.40;72.10;;;;;;5112955;28;20043;-75
2023/03/04 00:47:34;;;;;;;9.93;1.75;;;8.40;72.10;;;;;;5112890;28;20069;-75
2023/03/04 00:49:59;;;;;;;10.43;1.60;;;8.40;72.10;;;;;;5113739;28;20028;-75
2023/03/04 00:52:25;;;;;;;5.45;1.48;;;8.40;72.00;;;;;;5113913;28;20043;-75
2023/03/04 00:54:51;;;;;;;5.32;1.65;;;8.30;71.80;;;;;;5113743;28;20028;-75
2023/03/04 00:57:16;;;;;;;6.28;2.25;;;8.30;71.80;;;;;;5113706;28;20020;-75
2023/03/04 00:59:42;;;;;;;7.75;1.55;;;8.20;71.70;;;;;;5113285;28;20059;-75
2023/03/04 01:02:09;;;;;;;6.53;1.90;;;8.20;71.70;;;;;;5113140;28;20075;-75
2023/03/04 01:04:35;;;;;;;6.50;1.10;;;8.20;71.70;;;;;;5113650;28;20038;-75
2023/03/04 01:07:00;;;;;;;8.55;1.60;;;8.20;71.80;;;;;;5113608;28;20049;-75
2023/03/04 01:09:26;;;;;;;4.60;1.52;;;8.20;71.80;;;;;;5113435;28;20035;-75
2023/03/04 01:11:52;;;;;;;6.10;1.17;;;8.30;71.90;;;;;;5112605;28;20027;-75
2023/03/04 01:14:18;;;;;;;4.75;1.13;;;8.30;72.00;;;;;;5113526;28;20482;-75
2023/03/04 01:16:43;;;;;;;10.43;2.47;;;8.30;72.10;;;;;;5113645;28;20024;-75
2023/03/04 01:19:09;;;;;;;8.75;1.65;;;8.30;72.20;;;;;;5112616;28;20032;-75
2023/03/04 01:21:35;;;;;;;5.57;1.52;;;8.30;72.20;;;;;;5113443;28;20032;-75
2023/03/04 01:24:01;;;;;;;6.50;1.42;;;8.30;72.30;;;;;;5112431;28;20051;-75
2023/03/04 01:26:26;;;;;;;8.82;1.83;;;8.30;72.30;;;;;;5112531;28;20032;-75
2023/03/04 01:28:52;;;;;;;12.05;1.73;;;8.30;72.40;;;;;;5113329;28;20028;-75
2023/03/04 01:31:17;;;;;;;6.82;1.40;;;8.30;72.40;;;;;;5112467;28;20039;-75
2023/03/04 01:33:43;;;;;;;7.15;1.30;;;8.30;72.50;;;;;;5113148;28;20052;-75
2023/03/04 01:36:09;;;;;;;8.45;1.73;;;8.30;72.40;;;;;;5112363;28;20053;-75
2023/03/04 01:38:34;;;;;;;6.60;1.30;;;8.30;72.50;;;;;;5112361;28;20080;-75
2023/03/04 01:41:00;;;;;;;8.50;1.80;;;8.30;72.50;;;;;;5113264;28;20403;-75
2023/03/04 01:43:28;;;;;;;7.30;1.70;;;8.30;72.60;;;;;;5113254;28;20020;-75
2023/03/04 01:45:56;;;;;;;7.63;2.13;;;8.30;72.60;;;;;;5113220;28;20020;-75
2023/03/04 01:48:26;;;;;;;4.10;1.55;;;8.30;72.70;;;;;;5113220;28;20021;-75
2023/03/04 01:50:52;;;;;;;6.88;1.30;;;8.20;72.70;;;;;;5113180;28;20027;-75
2023/03/04 01:53:26;;;;;;;6.57;1.70;;;8.20;72.80;;;;;;5113143;28;20016;-75
2023/03/04 01:55:55;;;;;;;4.78;1.30;;;8.20;72.80;;;;;;5113129;28;20032;-75
2023/03/04 01:58:24;;;;;;;7.60;1.58;;;8.20;72.90;;;;;;5113146;28;20016;-75
2023/03/04 02:00:50;;;;;;;4.68;1.17;;;8.10;72.90;;;;;;5113121;28;20024;-75
2023/03/04 02:03:18;;;;;;;12.75;1.80;;;8.20;73.00;;;;;;5112217;28;20471;-75
2023/03/04 02:05:47;;;;;;;6.18;1.40;;;8.20;73.00;;;;;;5113056;28;20026;-75
2023/03/04 02:08:15;;;;;;;5.72;1.23;;;8.20;73.00;;;;;;5112964;28;20020;-75
2023/03/04 02:10:42;;;;;;;4.18;1.13;;;8.20;73.10;;;;;;5112936;28;20048;-75
2023/03/04 02:13:08;;;;;;;4.90;1.55;;;8.20;73.10;;;;;;5115955;28;20047;-75
2023/03/04 02:15:34;;;;;;;7.35;1.30;;;8.20;73.20;;;;;;5116716;28;20020;-75
2023/03/04 02:18:00;;;;;;;6.35;1.48;;;8.20;74.00;;;;;;5116664;28;20043;-75
2023/03/04 02:20:29;;;;;;;4.13;1.40;;;8.20;73.30;;;;;;5116614;28;20038;-75
2023/03/04 02:23:12;;;;;;;9.88;1.40;;;8.20;73.40;;;;;;5116567;28;20035;-75
2023/03/04 02:26:21;;;;;;;5.63;1.23;;;8.20;73.40;;;;;;5116561;28;20025;-75
2023/03/04 02:28:49;;;;;;;5.18;1.30;;;8.10;73.40;;;;;;5093794;28;20044;-75
2023/03/04 02:31:20;;;;;;;4.90;1.13;;;8.20;73.50;;;;;;5116420;28;20028;-75
2023/03/04 02:33:46;;;;;;;5.13;1.38;;;8.10;74.30;;;;;;5116171;28;20051;-75
2023/03/04 02:36:12;;;;;;;4.00;1.45;;;8.20;73.50;;;;;;5116357;28;20076;-75
2023/03/04 02:38:38;;;;;;;8.68;1.80;;;8.20;73.60;;;;;;5115433;28;20442;-75
2023/03/04 02:41:04;;;;;;;5.15;1.00;;;8.10;73.60;;;;;;5116234;28;20028;-75
2023/03/04 02:43:29;;;;;;;2.72;1.13;;;8.10;73.70;;;;;;5115154;28;20066;-75
2023/03/04 02:45:55;;;;;;;6.30;1.73;;;8.10;73.70;;;;;;5116133;28;20027;-75
2023/03/04 02:48:23;;;;;;;5.55;1.40;;;8.10;73.80;;;;;;5116261;28;20031;-75
2023/03/04 02:50:51;;;;;;;5.95;1.50;;;8.10;73.80;;;;;;5115989;28;20027;-75
2023/03/04 02:53:19;;;;;;;8.23;1.42;;;8.10;73.90;;;;;;5116020;28;20031;-75
2023/03/04 02:55:45;;;;;;;3.83;1.65;;;8.10;74.00;;;;;;5115981;28;20360;-75
2023/03/04 02:58:11;;;;;;;5.78;1.85;;;8.10;74.00;;;;;;5115906;28;20045;-75
2023/03/04 03:00:37;;;;;;;4.63;1.45;;;8.10;74.20;;;;;;5114834;28;20092;-75
2023/03/04 03:03:03;;;;;;;4.65;1.60;;;8.10;74.20;;;;;;5115822;28;20024;-75
2023/03/04 03:05:31;;;;;;;5.43;1.17;;;8.10;74.40;;;;;;5114722;28;20035;-75
2023/03/04 03:07:56;;;;;;;6.85;1.50;;;8.10;74.50;;;;;;5115641;28;20027;-75
2023/03/04 03:10:23;;;;;;;6.15;1.58;;;8.10;74.50;;;;;;5115569;28;20028;-75
2023/03/04 03:12:49;;;;;;;6.43;1.60;;;8.20;74.60;;;;;;5114770;28;20024;-75
2023/03/04 03:15:15;;;;;;;7.93;2.15;;;8.10;74.60;;;;;;5115576;28;20054;-75
2023/03/04 03:17:40;;;;;;;6.78;1.50;;;8.10;74.80;;;;;;5115653;28;20079;-75
2023/03/04 03:20:07;;;;;;;3.78;1.02;;;8.10;74.90;;;;;;5115460;28;20028;-75
2023/03/04 03:22:33;;;;;;;10.60;1.77;;;8.10;74.90;;;;;;5115178;28;20055;-75
2023/03/04 03:24:59;;;;;;;3.67;1.60;;;8.10;74.90;;;;;;5114520;28;20028;-75
2023/03/04 03:27:24;;;;;;;5.45;1.38;;;8.10;74.70;;;;;;5115328;28;20035;-75
2023/03/04 03:29:50;;;;;;;4.63;1.38;;;8.10;74.60;;;;;;5114219;28;20038;-75
2023/03/04 03:32:15;;;;;;;5.38;1.13;;;8.10;74.50;;;;;;5114205;28;20039;-75
2023/03/04 03:34:41;;;;;;;5.22;1.35;;;8.00;74.50;;;;;;5115130;28;20099;-75
2023/03/04 03:37:06;;;;;;;3.58;1.30;;;8.00;74.40;;;;;;5115133;28;20028;-75
2023/03/04 03:39:32;;;;;;;5.40;1.50;;;8.00;74.40;;;;;;5114132;28;20028;-75
2023/03/04 03:41:58;;;;;;;2.47;0.77;;;8.00;74.50;;;;;;5115046;28;20036;-75
2023/03/04 03:44:23;;;;;;;2.85;1.23;;;8.00;74.60;;;;;;5114047;28;20024;-75
2023/03/04 03:46:49;;;;;;;5.20;1.00;;;8.00;74.60;;;;;;5115078;28;20091;-75
2023/03/04 03:49:16;;;;;;;5.68;1.02;;;8.00;74.70;;;;;;5114792;28;20032;-75
2023/03/04 03:51:41;;;;;;;7.28;1.05;;;8.00;74.80;;;;;;5114868;28;20012;-75
2023/03/04 03:54:07;;;;;;;6.95;1.20;;;8.00;74.80;;;;;;5114827;28;20387;-75
2023/03/04 03:56:33;;;;;;;5.22;0.90;;;8.00;74.60;;;;;;5114783;28;20032;-75
2023/03/04 03:58:58;;;;;;;6.97;1.42;;;8.00;74.60;;;;;;5114724;28;20034;-75
2023/03/04 04:01:24;;;;;;;2.92;0.82;;;8.00;74.60;;;;;;5113954;28;20033;-75
2023/03/04 04:03:50;;;;;;;5.55;1.80;;;8.10;74.70;;;;;;5113707;28;20028;-75
2023/03/04 04:06:15;;;;;;;11.05;1.77;;;8.10;74.70;;;;;;5114728;28;20050;-75
2023/03/04 04:08:41;;;;;;;6.28;1.13;;;8.10;74.80;;;;;;5114408;28;20021;-75
2023/03/04 04:11:11;;;;;;;4.85;1.35;;;8.10;74.70;;;;;;5114492;28;20032;-75
2023/03/04 04:13:37;;;;;;;4.18;0.73;;;8.10;74.80;;;;;;5114440;28;20023;-75
2023/03/04 04:16:03;;;;;;;10.63;1.40;;;8.10;74.80;;;;;;5114414;28;20024;-75
2023/03/04 04:18:28;;;;;;;7.50;1.08;;;8.10;74.80;;;;;;5114384;28;20020;-75
2023/03/04 04:20:55;;;;;;;4.75;1.20;;;8.10;74.80;;;;;;5113373;28;20032;-75
2023/03/04 04:23:21;;;;;;;3.05;1.20;;;8.00;74.80;;;;;;5113300;28;20028;-75
2023/03/04 04:25:46;;;;;;;6.22;1.15;;;8.00;74.80;;;;;;5114251;28;20061;-75
2023/03/04 04:28:12;;;;;;;6.78;1.17;;;8.00;75.00;;;;;;5114183;28;20079;-75
2023/03/04 04:30:38;;;;;;;6.40;1.02;;;8.10;75.00;;;;;;5096181;28;20034;-75
2023/03/04 04:33:04;;;;;;;5.05;1.27;;;8.00;74.90;;;;;;5113974;28;20060;-75
2023/03/04 04:35:31;;;;;;;5.97;1.13;;;8.10;74.90;;;;;;5114008;28;20447;-75
2023/03/04 04:37:57;;;;;;;7.07;1.00;;;8.10;74.80;;;;;;5113992;28;20031;-75
2023/03/04 04:40:23;;;;;;;5.40;1.40;;;8.10;74.80;;;;;;5113982;28;20028;-75
2023/03/04 04:42:48;;;;;;;6.45;1.20;;;8.10;74.80;;;;;;5113953;28;20031;-75
2023/03/04 04:45:14;;;;;;;11.43;1.45;;;8.00;74.60;;;;;;5114114;28;20035;-75
2023/03/04 04:47:39;;;;;;;6.72;1.00;;;8.00;74.60;;;;;;5112925;28;20035;-75
2023/03/04 04:50:06;;;;;;;4.78;1.20;;;8.10;74.60;;;;;;5113778;28;20062;-75
2023/03/04 04:52:32;;;;;;;9.52;1.52;;;8.00;74.60;;;;;;5113927;28;20024;-75
2023/03/04 04:54:57;;;;;;;4.03;1.23;;;8.00;74.60;;;;;;5113778;28;20154;-75
2023/03/04 04:57:23;;;;;;;4.82;1.30;;;8.00;74.60;;;;;;5095918;28;20054;-75
2023/03/04 04:59:49;;;;;;;5.18;1.30;;;8.00;74.70;;;;;;5112686;28;20040;-75
2023/03/04 05:02:14;;;;;;;4.35;1.20;;;8.00;74.70;;;;;;5112635;28;20031;-75
2023/03/04 05:04:40;;;;;;;5.38;1.10;;;8.00;74.80;;;;;;5113660;28;20032;-75
2023/03/04 05:07:05;;;;;;;7.68;0.95;;;8.00;74.80;;;;;;5112674;28;20062;-75
2023/03/04 05:09:31;;;;;;;7.32;1.30;;;8.00;74.90;;;;;;5112519;28;20042;-75
2023/03/04 05:11:57;;;;;;;6.03;1.13;;;8.00;74.80;;;;;;5113557;28;20012;-75
2023/03/04 05:14:22;;;;;;;1.60;0.75;;;8.00;74.80;;;;;;5113559;28;20016;-75
2023/03/04 05:16:48;;;;;;;6.07;1.00;;;8.00;74.90;;;;;;5113546;28;20048;-75
2023/03/04 05:19:14;;;;;;;6.43;1.50;;;7.90;74.80;;;;;;5113657;28;20091;-75
2023/03/04 05:21:40;;;;;;;4.60;0.73;;;8.00;74.90;;;;;;5112459;28;20087;-75
2023/03/04 05:24:05;;;;;;;5.97;0.95;;;8.00;74.90;;;;;;5112627;28;20062;-75
2023/03/04 05:26:31;;;;;;;3.83;0.70;;;8.00;74.90;;;;;;5113460;28;20035;-75
2023/03/04 05:28:57;;;;;;;5.13;2.13;;;7.90;74.90;;;;;;5113323;28;20495;-75
2023/03/04 05:31:22;;;;;;;3.67;1.08;;;7.90;75.10;;;;;;5113393;28;20024;-75
2023/03/04 05:33:48;;;;;;;7.72;1.48;;;7.90;75.00;;;;;;5113216;28;20036;-75
2023/03/04 05:36:14;;;;;;;4.63;1.35;;;7.90;76.10;;;;;;5112459;28;20421;-75
2023/03/04 05:38:39;;;;;;;4.13;0.70;;;7.90;75.00;;;;;;5113327;28;20024;-75
2023/03/04 05:41:06;;;;;;;4.53;0.85;;;7.90;75.00;;;;;;5112293;28;20024;-75
2023/03/04 05:43:34;;;;;;;3.15;0.77;;;7.90;75.10;;;;;;5113272;28;20076;-75
2023/03/04 05:46:01;;;;;;;5.68;0.70;;;7.90;75.30;;;;;;5113283;28;20032;-75
2023/03/04 05:48:27;;;;;;;7.38;1.40;;;7.90;75.40;;;;;;5116908;28;20043;-75
2023/03/04 05:50:58;;;;;;;4.57;1.55;;;7.90;75.50;;;;;;5117163;28;20027;-75
2023/03/04 05:53:24;;;;;;;1.48;0.70;;;7.90;75.60;;;;;;5116267;28;20025;-75
2023/03/04 05:55:50;;;;;;;5.03;0.85;;;7.90;75.70;;;;;;5117142;28;20089;-75
2023/03/04 05:58:16;;;;;;;3.42;1.05;;;7.90;75.70;;;;;;5117083;28;20032;-75
2023/03/04 06:00:42;;;;;;;4.88;0.90;;;7.90;75.80;;;;;;5117224;28;20024;-75
2023/03/04 06:03:14;;;;;;;1.23;0.52;;;7.90;75.80;;;;;;5116993;28;20028;-75
2023/03/04 06:05:40;;;;;;;5.47;0.90;;;7.90;75.70;;;;;;5117014;28;20043;-75
2023/03/04 06:08:05;;;;;;;2.75;0.80;;;7.90;75.70;;;;;;5116819;28;20043;-75
2023/03/04 06:10:31;;;;;;;3.42;0.80;;;7.90;75.70;;;;;;5116778;28;20020;-75
2023/03/04 06:12:57;;;;;;;3.78;0.88;;;7.90;75.90;;;;;;5115755;28;20368;-75
2023/03/04 06:15:23;;;;;;;5.68;0.90;;;7.90;75.80;;;;;;5116759;28;20031;-75
2023/03/04 06:17:48;;;;;;;4.80;0.90;;;7.90;76.80;;;;;;5116734;28;20024;-75
2023/03/04 06:20:14;;;;;;;2.75;0.60;;;7.80;75.90;;;;;;5116784;28;20035;-75
2023/03/04 06:22:40;;;;;;;4.38;0.90;;;7.90;76.00;;;;;;5115656;28;20036;-75
2023/03/04 06:25:06;;;;;;;5.82;0.90;;;7.90;76.00;;;;;;5116715;28;20032;-75
2023/03/04 06:27:32;;;;;;;4.72;0.70;;;7.80;76.00;;;;;;5115488;28;20024;-76
2023/03/04 06:29:57;;;;;;;6.32;0.85;;;7.80;76.00;;;;;;5115528;28;20032;-75
2023/03/04 06:32:23;;;;;;;3.45;0.70;;;7.80;76.10;;;;;;5098523;28;20031;-75
2023/03/04 06:34:49;;;;;;;1.90;0.68;;;7.80;76.10;;;;;;5116134;28;20063;-75
2023/03/04 06:37:14;;;;;;;3.45;0.88;;;7.80;76.10;;;;;;5116357;28;20032;-75
2023/03/04 06:39:40;;;;;;;4.10;0.70;;;7.80;76.10;;;;;;5116310;28;20052;-75
2023/03/04 06:42:06;;;;;;;2.47;0.73;;;7.80;76.10;;;;;;5115317;28;20040;-75
2023/03/04 06:44:31;;;;;;;6.43;1.20;;;7.80;76.10;;;;;;5116345;28;20028;-75
2023/03/04 06:46:57;;;;;;;2.97;0.85;;;7.80;76.20;;;;;;5116171;28;20065;-75
2023/03/04 06:49:23;;;;;;;5.22;0.70;;;7.80;76.10;;;;;;5114993;28;20079;-75
2023/03/04 06:51:48;;;;;;;1.58;0.70;;;7.80;76.20;;;;;;5115186;28;20025;-75
2023/03/04 06:54:14;;;;;;;3.50;0.90;;;7.80;76.30;;;;;;5115218;28;20483;-75
2023/03/04 06:56:39;;;;;;;3.30;0.63;;;7.80;76.30;;;;;;5115991;28;20046;-75
2023/03/04 06:59:05;;;;;;;2.25;0.88;;;7.80;76.40;;;;;;5114841;28;20157;-75
2023/03/04 07:01:31;;;;;;;3.65;1.00;;;7.90;76.40;;;;;;5115863;28;20020;-75
2023/03/04 07:03:57;;;;;;;1.75;0.80;;;7.80;76.70;;;;;;5115818;28;20031;-75
2023/03/04 07:06:25;;;;;;;2.58;0.82;;;7.80;76.70;;;;;;5114867;28;20044;-75
2023/03/04 07:08:51;;;;;;;7.18;1.13;;;7.80;76.70;;;;;;5115568;28;20043;-75
2023/03/04 07:11:18;;;;;;;3.35;0.88;;;7.80;76.70;;;;;;5114754;28;20028;-75
2023/03/04 07:13:44;;;;;;;4.15;1.10;;;7.80;76.80;;;;;;5115617;28;20028;-75
2023/03/04 07:16:12;;;;;;;1.23;0.60;;;7.80;76.90;;;;;;5115711;28;20046;-75
2023/03/04 07:18:37;;;;;;;3.10;1.17;;;7.80;77.00;;;;;;5115534;28;20031;-76
2023/03/04 07:21:04;;;;;;;3.17;0.93;;;7.80;77.10;;;;;;5115443;28;20028;-76
2023/03/04 07:23:30;;;;;;;3.00;0.95;;;7.90;77.20;;;;;;5114512;28;20034;-76
2023/03/04 07:25:56;;;;;;;7.80;1.40;;;7.90;77.20;;;;;;5115406;28;20048;-75
2023/03/04 07:28:21;;;;;;;3.67;0.88;;;7.90;77.30;;;;;;5115369;28;20050;-74
2023/03/04 07:30:48;;;;;;;4.80;0.90;;;7.90;77.40;;;;;;5115202;28;20032;-75
2023/03/04 07:33:14;;;;;;;4.63;0.80;;;7.90;77.50;;;;;;5115105;28;20048;-76
2023/03/04 07:35:40;;;;;;;2.47;0.75;;;7.90;77.60;;;;;;5115240;28;20047;-75
2023/03/04 07:38:05;;;;;;;2.50;0.60;;;7.80;77.70;;;;;;5115150;28;20028;-75
2023/03/04 07:40:31;;;;;;;5.82;1.42;;;7.90;77.80;;;;;;5115215;28;20084;-75
2023/03/04 07:42:57;;;;;;;2.45;0.88;;;7.90;77.70;;;;;;5114207;28;20032;-75
2023/03/04 07:45:23;;;;;;;7.18;0.98;;;7.90;77.70;;;;;;5115016;28;20028;-75
2023/03/04 07:47:49;;;;;;;5.28;1.00;;;7.80;77.60;;;;;;5114980;28;20095;-75
2023/03/04 07:50:16;;;;;;;4.82;1.15;;;7.80;77.90;;;;;;5114875;28;20027;-75
2023/03/04 07:52:45;;;;;;;3.67;0.75;;;7.90;77.90;;;;;;5114873;28;20020;-75
2023/03/04 07:55:12;;;;;;;5.28;0.98;;;7.90;78.20;;;;;;5113567;28;20024;-75
2023/03/04 07:57:39;;;;;;;3.30;0.80;;;7.90;78.10;;;;;;5114789;28;20021;-75
2023/03/04 08:00:06;;;;;;;5.30;0.80;;;7.90;78.50;;;;;;5114725;28;20035;-75
2023/03/04 08:02:31;;;;;;;2.35;0.82;;;7.90;78.30;;;;;;5114661;28;20028;-75
2023/03/04 08:04:57;;;;;;;7.72;1.15;;;7.90;78.50;;;;;;5113613;28;20048;-76
2023/03/04 08:07:22;;;;;;;2.08;0.77;;;7.90;78.80;;;;;;5114729;28;20031;-76
2023/03/04 08:09:48;;;;;;;3.85;1.27;;;7.90;78.80;;;;;;5113909;28;20060;-75
2023/03/04 08:12:14;;;;;;;2.47;0.68;;;7.90;79.00;;;;;;5114499;28;20054;-76
2023/03/04 08:14:40;;;;;;;2.10;0.90;;;7.90;79.10;;;;;;5114419;28;20088;-75
2023/03/04 08:17:05;;;;;;;3.17;0.82;;;7.90;79.30;;;;;;5114394;28;20031;-76
2023/03/04 08:19:31;;;;;;;4.47;1.27;;;7.90;79.40;;;;;;5114500;28;20357;-76
2023/03/04 08:21:56;;;;;;;8.35;1.38;;;8.00;79.80;;;;;;5114291;28;20043;-76
2023/03/04 08:24:22;;;;;;;3.58;1.20;;;8.00;79.70;;;;;;5114416;28;20035;-75
2023/03/04 08:26:49;;;;;;;4.28;1.40;;;8.10;79.80;;;;;;5114216;28;20032;-75
2023/03/04 08:29:19;;;;;;;4.57;0.85;;;8.10;80.60;;;;;;5114118;28;20032;-75
2023/03/04 08:31:45;;;;;;;3.20;1.00;;;8.20;80.10;;;;;;5114338;28;20111;-75
2023/03/04 08:34:13;;;;;;;2.45;0.90;;;8.20;79.90;;;;;;5113922;28;20048;-75
2023/03/04 08:36:41;;;;;;;1.98;0.60;;;8.20;80.30;;;;;;5114215;28;20027;-75
2023/03/04 08:39:07;;;;;;;2.30;0.45;;;8.20;80.10;;;;;;5114027;28;20054;-75
2023/03/04 08:41:33;;;;;;;2.47;0.60;;;8.20;80.60;;;;;;5113986;28;20020;-75
2023/03/04 08:43:59;;;;;;;6.75;0.93;;;8.30;80.60;;;;;;5113970;28;20028;-76
2023/03/04 08:46:25;;;;;;;1.60;0.63;;;8.30;80.70;;;;;;5113920;28;20024;-76
2023/03/04 08:48:50;;;;;;;4.22;0.93;;;8.40;80.80;;;;;;5112904;28;20075;-75
2023/03/04 08:51:16;;;;;;;2.53;0.90;;;8.40;80.60;;;;;;5113833;28;20039;-75
2023/03/04 08:53:42;;;;;;;2.53;0.95;;;8.40;81.40;;;;;;5113823;28;20020;-76
2023/03/04 08:56:09;;;;;;;3.28;1.10;;;8.50;80.50;;;;;;5113811;28;20027;-75
2023/03/04 08:58:35;;;;;;;1.77;0.68;;;8.50;80.50;;;;;;5113735;28;20024;-75
2023/03/04 09:01:02;;;;;;;5.07;1.00;;;8.60;80.40;;;;;;5112672;28;20024;-75
2023/03/04 09:03:27;;;;;;;4.50;1.02;;;8.60;80.40;;;;;;5113640;28;20028;-75
2023/03/04 09:05:53;;;;;;;3.95;0.88;;;8.60;80.00;;;;;;5112675;28;20028;-75
2023/03/04 09:08:19;;;;;;;5.15;0.90;;;8.60;80.10;;;;;;5113565;28;20039;-75
2023/03/04 09:10:46;;;;;;;4.88;1.38;;;8.70;80.20;;;;;;5113535;28;20048;-75
2023/03/04 09:13:16;;;;;;;4.15;0.88;;;8.70;80.20;;;;;;5113585;28;20031;-74
2023/03/04 09:15:47;;;;;;;5.55;0.95;;;8.70;79.80;;;;;;5113538;28;20028;-76
2023/03/04 09:18:13;;;;;;;2.00;0.90;;;8.70;79.90;;;;;;5113476;28;20020;-75
2023/03/04 09:20:39;;;;;;;2.10;1.00;;;8.80;79.80;;;;;;5113477;28;20051;-74
2023/03/04 09:23:04;;;;;;;3.83;1.52;;;8.80;79.70;;;;;;5116729;28;20023;-75
2023/03/04 09:25:31;;;;;;;3.10;1.13;;;8.80;79.70;;;;;;5116706;28;20058;-75
2023/03/04 09:27:56;;;;;;;3.20;0.70;;;8.90;79.60;;;;;;5117669;28;20088;-75
2023/03/04 09:30:22;;;;;;;1.92;0.77;;;8.80;79.60;;;;;;5099582;28;20043;-75
2023/03/04 09:32:48;;;;;;;3.35;1.02;;;8.80;79.80;;;;;;5117436;28;20088;-75
2023/03/04 09:35:13;;;;;;;4.60;1.27;;;8.80;79.90;;;;;;5116715;28;20029;-75
2023/03/04 09:37:39;;;;;;;1.90;0.50;;;8.90;79.90;;;;;;5117632;28;20024;-75
2023/03/04 09:40:07;;;;;;;2.45;0.75;;;8.90;79.70;;;;;;5116636;28;20123;-75
2023/03/04 09:42:45;;;;;;;1.25;0.65;;;8.90;79.70;;;;;;5117386;28;20067;-75
2023/03/04 09:45:16;;;;;;;3.10;0.80;;;8.90;79.80;;;;;;5116334;28;20027;-75
2023/03/04 09:47:42;;;;;;;2.25;0.80;;;9.00;79.80;;;;;;5116305;28;20333;-75
2023/03/04 09:50:10;;;;;;;1.98;0.70;;;9.00;80.20;;;;;;5117181;28;20030;-75
2023/03/04 09:52:54;;;;;;;2.70;0.68;;;9.10;79.60;;;;;;5117158;28;20032;-75
2023/03/04 09:55:26;;;;;;;3.58;0.60;;;9.10;79.60;;;;;;5117137;28;20071;-75
2023/03/04 09:58:11;;;;;;;2.60;0.80;;;9.00;79.20;;;;;;5117281;28;20016;-75
2023/03/04 10:00:50;;;;;;;2.13;1.10;;;9.00;79.40;;;;;;5117143;28;20039;-75
2023/03/04 10:03:24;;;;;;;3.60;0.70;;;9.00;79.60;;;;;;5115974;28;20040;-75
2023/03/04 10:06:08;;;;;;;0.77;0.55;;;9.00;79.70;;;;;;5117014;28;20028;-75
2023/03/04 10:08:40;;;;;;;2.30;0.70;;;9.10;79.90;;;;;;5116895;28;20080;-75
2023/03/04 10:11:13;;;;;;;2.20;0.77;;;9.00;80.10;;;;;;5116936;28;20028;-75
2023/03/04 10:13:56;;;;;;;4.03;1.27;;;9.00;80.60;;;;;;5116762;28;20020;-75
2023/03/04 10:16:28;;;;;;;3.42;0.80;;;9.00;80.40;;;;;;5116902;28;20455;-75
2023/03/04 10:19:36;;;;;;;1.42;0.65;;;9.00;81.30;;;;;;5116729;28;20021;-75
2023/03/04 10:22:15;;;;;;;2.47;0.90;;;8.90;81.00;;;;;;5018096;28;20030;-75
2023/03/04 10:24:41;;;;;;;2.05;0.75;;;8.90;80.90;;;;;;5111494;28;20028;-75
2023/03/04 10:27:12;;;;;;;3.03;0.77;;;8.90;81.10;;;;;;5115741;28;20024;-76
2023/03/04 10:29:38;;;;;;;1.75;0.73;;;8.90;81.30;;;;;;5116508;28;20023;-76
2023/03/04 10:32:04;;;;;;;2.90;0.90;;;8.90;81.70;;;;;;5115256;28;20092;-76
2023/03/04 10:34:30;;;;;;;3.90;0.80;;;8.90;81.50;;;;;;5115955;28;20045;-76
2023/03/04 10:36:59;;;;;;;1.00;0.70;;;8.90;81.90;;;;;;5098363;28;20442;-76
2023/03/04 10:39:41;;;;;;;2.80;0.77;;;8.90;82.00;;;;;;5116214;28;20024;-76
2023/03/04 10:42:25;;;;;;;2.40;0.80;;;9.00;82.00;;;;;;5116241;28;20032;-75
2023/03/04 10:44:56;;;;;;;1.75;0.80;;;9.00;82.10;;;;;;5116274;28;20028;-75
2023/03/04 10:47:24;;;;;;;3.47;0.50;;;9.10;81.90;;;;;;5115208;28;20023;-75
2023/03/04 10:50:02;;;;;;;2.75;0.95;;;9.10;81.90;;;;;;5115998;28;20052;-74
2023/03/04 10:52:48;;;;;;;1.02;0.80;;;9.20;82.00;;;;;;5116084;28;20032;-74
2023/03/04 10:55:17;;;;;;;3.15;0.80;;;9.30;81.60;;;;;;5115995;28;20016;-73
2023/03/04 10:57:47;;;;;;;3.22;0.90;;;9.40;82.10;;;;;;5115918;28;20024;-74
2023/03/04 11:00:33;;;;;;;2.63;1.10;;;9.50;82.90;;;;;;5114822;28;20053;-73
2023/03/04 11:03:23;;;;;;;1.00;0.70;;;9.60;82.20;;;;;;5115870;28;20054;-74
2023/03/04 11:05:49;;;;;;;2.47;0.70;;;9.60;81.10;;;;;;5115802;28;20039;-75
2023/03/04 11:08:21;;;;;;;2.60;0.88;;;9.60;81.10;;;;;;5115655;28;20026;-75
2023/03/04 11:10:50;;;;;;;2.40;0.98;;;9.70;81.10;;;;;;5115706;28;20107;-75
2023/03/04 11:13:20;;;;;;;1.50;0.82;;;9.80;81.50;;;;;;5114782;28;20032;-74
2023/03/04 11:15:54;;;;;;;3.53;0.90;;;9.90;80.10;;;;;;5115694;28;20024;-73
2023/03/04 11:18:29;;;;;;;2.33;1.10;;;9.90;80.40;;;;;;5114470;28;20020;-74
2023/03/04 11:20:58;;;;;;;3.20;0.82;;;9.90;80.10;;;;;;5115546;28;20020;-74
2023/03/04 11:23:44;;;;;;;3.42;1.00;;;9.90;79.80;;;;;;5115510;28;20036;-73
2023/03/04 11:26:17;;;;;;;2.10;1.10;;;9.80;79.70;;;;;;5114529;28;20046;-73
2023/03/04 11:29:12;;;;;;;2.97;1.10;;;9.80;79.60;;;;;;5115458;28;20087;-73
2023/03/04 11:31:46;;;;;;;3.42;1.15;;;9.70;79.10;;;;;;5114744;28;20102;-73
2023/03/04 11:34:37;;;;;;;4.05;1.33;;;9.70;79.40;;;;;;5115107;28;20051;-73
2023/03/04 11:37:17;;;;;;;2.45;1.30;;;9.70;79.80;;;;;;5114196;28;20028;-73
2023/03/04 11:39:51;;;;;;;4.25;1.65;;;9.60;80.00;;;;;;5115300;28;20023;-73
2023/03/04 11:42:44;;;;;;;2.78;1.02;;;9.60;80.00;;;;;;5115105;28;20021;-73
2023/03/04 11:45:16;;;;;;;2.20;0.73;;;9.60;80.90;;;;;;5114335;28;20042;-73
2023/03/04 11:48:01;;;;;;;1.95;1.10;;;9.70;80.30;;;;;;5115002;28;20031;-74
2023/03/04 11:50:49;;;;;;;2.42;1.13;;;9.80;80.30;;;;;;5113963;28;20422;-73
2023/03/04 11:53:27;;;;;;;0.85;0.70;;;9.80;80.20;;;;;;5114882;28;20016;-74
2023/03/04 11:56:09;;;;;;;1.88;0.90;;;9.80;80.00;;;;;;5113829;28;20027;-74
2023/03/04 11:58:37;;;;;;;1.48;0.80;;;9.80;80.00;;;;;;5113864;28;20024;-74
2023/03/04 12:01:13;;;;;;;1.60;0.90;;;9.80;80.00;;;;;;5114794;28;20027;-73
2023/03/04 12:04:20;;;;;;;3.20;1.08;;;9.70;79.90;;;;;;5114828;28;20020;-74
2023/03/04 12:06:59;;;;;;;1.00;0.73;;;9.70;80.30;;;;;;5114117;28;20063;-74
2023/03/04 12:09:40;;;;;;;1.73;0.63;;;9.60;80.20;;;;;;5114332;28;20040;-74
2023/03/04 12:12:43;;;;;;;1.15;0.55;;;9.70;80.50;;;;;;5113580;28;20028;-74
2023/03/04 12:15:41;;;;;;;2.25;0.40;;;9.60;80.60;;;;;;5113503;28;20049;-74
2023/03/04 12:18:36;;;;;;;1.42;0.60;;;9.70;80.60;;;;;;5114433;28;20020;-74
2023/03/04 12:21:16;;;;;;;2.00;0.47;;;9.80;80.40;;;;;;5072985;28;20120;-74
2023/03/04 12:23:54;;;;;;;1.55;0.90;;;9.80;80.00;;;;;;5114493;28;20022;-74
2023/03/04 12:26:41;;;;;;;1.13;0.43;;;9.90;80.10;;;;;;5114297;28;20028;-74
2023/03/04 12:29:24;;;;;;;2.38;0.70;;;9.90;79.80;;;;;;5114304;28;20020;-74
2023/03/04 12:32:18;;;;;;;1.65;0.90;;;10.00;79.70;;;;;;5131444;27;20368;-74
2023/03/04 12:34:56;;;;;;;2.33;0.90;;;10.00;79.70;;;;;;5131391;28;20042;-73
2023/03/04 12:37:28;;;;;;;1.15;0.80;;;10.00;79.80;;;;;;5131357;28;20016;-73
2023/03/04 12:40:12;;;;;;;2.67;0.80;;;10.00;79.80;;;;;;5131269;28;20024;-75
2023/03/04 12:43:08;;;;;;;2.72;0.80;;;10.10;80.20;;;;;;5131400;28;20020;-74
2023/03/04 12:45:46;;;;;;;2.45;0.82;;;10.10;79.90;;;;;;5131216;28;20024;-74
2023/03/04 12:48:34;;;;;;;1.98;0.93;;;10.00;79.70;;;;;;5129778;28;20020;-74
2023/03/04 12:51:21;;;;;;;1.60;0.90;;;10.00;79.70;;;;;;5130756;28;20024;-74
2023/03/04 12:53:56;;;;;;;0.75;0.55;;;10.00;79.90;;;;;;5131022;28;20041;-74
2023/03/04 12:56:26;;;;;;;1.38;0.80;;;9.90;80.10;;;;;;5131007;28;20028;-73
2023/03/04 12:58:53;;;;;;;1.00;0.70;;;9.90;80.20;;;;;;5130885;28;20047;-72
2023/03/04 13:01:28;;;;;;;4.30;1.08;;;9.90;80.30;;;;;;5130827;28;20038;-72
2023/03/04 13:04:10;;;;;;;2.00;0.77;;;9.90;80.50;;;;;;5130740;28;20054;-72
2023/03/04 13:07:01;;;;;;;2.17;0.70;;;9.90;80.70;;;;;;5130947;28;20020;-72